createdAt,value
2017-05-07T00:00:57.674Z,0
2017-05-07T00:01:58.993Z,0
2017-05-07T00:03:00.333Z,0
2017-05-07T00:04:01.588Z,0
2017-05-07T00:05:02.859Z,0
2017-05-07T00:06:04.130Z,0
2017-05-07T00:07:05.385Z,0
2017-05-07T00:08:06.691Z,0
2017-05-07T00:09:07.957Z,0
2017-05-07T00:10:09.251Z,0
2017-05-07T00:11:10.485Z,0
2017-05-07T00:12:11.792Z,0
2017-05-07T00:13:13.124Z,0
2017-05-07T00:14:14.417Z,0
2017-05-07T00:15:15.679Z,0
2017-05-07T00:16:16.955Z,0
2017-05-07T00:17:18.233Z,0
2017-05-07T00:18:19.523Z,0
2017-05-07T00:19:20.821Z,0
2017-05-07T00:20:22.064Z,0
2017-05-07T00:21:23.406Z,0
2017-05-07T00:22:24.692Z,0
2017-05-07T00:23:25.930Z,0
2017-05-07T00:24:27.264Z,0
2017-05-07T00:25:28.602Z,0
2017-05-07T00:26:29.951Z,0
2017-05-07T00:27:31.226Z,0
2017-05-07T00:28:32.495Z,0
2017-05-07T00:29:33.749Z,0
2017-05-07T00:30:35.014Z,0
2017-05-07T00:31:36.267Z,0
2017-05-07T00:32:37.634Z,0
2017-05-07T00:33:39.095Z,0
2017-05-07T00:34:40.343Z,0
2017-05-07T00:35:41.675Z,0
2017-05-07T00:36:43.040Z,0
2017-05-07T00:37:44.277Z,0
2017-05-07T00:38:45.545Z,0
2017-05-07T00:39:46.891Z,0
2017-05-07T00:40:48.138Z,0
2017-05-07T00:41:49.382Z,0
2017-05-07T00:42:50.626Z,0
2017-05-07T00:43:51.871Z,0
2017-05-07T00:44:53.131Z,0
2017-05-07T00:45:54.414Z,0
2017-05-07T00:46:55.636Z,0
2017-05-07T00:47:57.026Z,0
2017-05-07T00:48:58.179Z,0
2017-05-07T00:49:59.473Z,0
2017-05-07T00:51:00.789Z,0
2017-05-07T00:52:02.065Z,0
2017-05-07T00:53:03.340Z,0
2017-05-07T00:54:04.598Z,0
2017-05-07T00:55:05.832Z,0
2017-05-07T00:56:07.121Z,0
2017-05-07T00:57:08.401Z,0
2017-05-07T00:58:09.704Z,0
2017-05-07T00:59:10.969Z,0
2017-05-07T01:00:12.238Z,0
2017-05-07T01:01:13.532Z,0
2017-05-07T01:02:14.820Z,0
2017-05-07T01:03:16.114Z,0
2017-05-07T01:04:17.436Z,0
2017-05-07T01:05:18.671Z,0
2017-05-07T01:06:19.908Z,0
2017-05-07T01:07:21.216Z,0
2017-05-07T01:08:22.508Z,0
2017-05-07T01:09:23.757Z,0
2017-05-07T01:10:25.052Z,0
2017-05-07T01:11:26.292Z,0
2017-05-07T01:12:27.577Z,0
2017-05-07T01:13:28.792Z,0
2017-05-07T01:14:30.077Z,0
2017-05-07T01:15:31.342Z,0
2017-05-07T01:16:32.592Z,0
2017-05-07T01:17:33.871Z,0
2017-05-07T01:18:35.120Z,0
2017-05-07T01:19:36.374Z,0
2017-05-07T01:20:37.668Z,0
2017-05-07T01:21:38.934Z,0
2017-05-07T01:22:40.195Z,0
2017-05-07T01:23:41.438Z,0
2017-05-07T01:24:42.696Z,0
2017-05-07T01:25:43.932Z,0
2017-05-07T01:26:45.178Z,0
2017-05-07T01:27:46.458Z,0
2017-05-07T01:28:47.674Z,0
2017-05-07T01:29:48.977Z,0
2017-05-07T01:30:50.273Z,0
2017-05-07T01:31:51.524Z,0
2017-05-07T01:32:52.830Z,0
2017-05-07T01:33:54.051Z,0
2017-05-07T01:34:55.363Z,0
2017-05-07T01:35:56.634Z,0
2017-05-07T01:36:57.859Z,0
2017-05-07T01:37:59.166Z,0
2017-05-07T01:39:00.429Z,0
2017-05-07T01:40:01.682Z,0
2017-05-07T01:41:02.926Z,0
2017-05-07T01:42:04.199Z,0
2017-05-07T01:43:05.457Z,0
2017-05-07T01:44:06.820Z,0
2017-05-07T01:45:08.047Z,0
2017-05-07T01:46:09.403Z,0
2017-05-07T01:47:10.658Z,0
2017-05-07T01:48:11.885Z,0
2017-05-07T01:49:13.163Z,0
2017-05-07T01:50:14.424Z,0
2017-05-07T01:51:15.698Z,0
2017-05-07T01:52:16.934Z,0
2017-05-07T01:53:18.191Z,0
2017-05-07T01:54:19.440Z,0
2017-05-07T01:55:20.713Z,0
2017-05-07T01:56:21.952Z,0
2017-05-07T01:57:23.233Z,0
2017-05-07T01:58:24.456Z,0
2017-05-07T01:59:25.736Z,0
2017-05-07T02:00:26.984Z,0
2017-05-07T02:01:28.269Z,0
2017-05-07T02:02:29.538Z,0
2017-05-07T02:03:30.756Z,0
2017-05-07T02:04:32.015Z,0
2017-05-07T02:05:33.344Z,0
2017-05-07T02:06:34.657Z,0
2017-05-07T02:07:35.878Z,0
2017-05-07T02:08:37.145Z,0
2017-05-07T02:09:38.499Z,0
2017-05-07T02:10:39.746Z,0
2017-05-07T02:11:41.094Z,0
2017-05-07T02:12:42.332Z,0
2017-05-07T02:13:43.592Z,0
2017-05-07T02:14:44.887Z,0
2017-05-07T02:15:46.080Z,0
2017-05-07T02:16:47.387Z,0
2017-05-07T02:17:48.642Z,0
2017-05-07T02:18:49.885Z,0
2017-05-07T02:19:51.152Z,0
2017-05-07T02:20:52.400Z,0
2017-05-07T02:21:53.682Z,0
2017-05-07T02:22:54.940Z,0
2017-05-07T02:23:56.182Z,0
2017-05-07T02:24:57.427Z,0
2017-05-07T02:25:58.668Z,0
2017-05-07T02:26:59.958Z,0
2017-05-07T02:28:01.245Z,0
2017-05-07T02:29:02.527Z,0
2017-05-07T02:30:03.788Z,0
2017-05-07T02:31:05.046Z,0
2017-05-07T02:32:06.302Z,0
2017-05-07T02:33:07.574Z,0
2017-05-07T02:34:08.842Z,0
2017-05-07T02:35:10.164Z,0
2017-05-07T02:36:11.371Z,0
2017-05-07T02:37:12.621Z,0
2017-05-07T02:38:13.873Z,0
2017-05-07T02:39:15.156Z,0
2017-05-07T02:40:16.393Z,0
2017-05-07T02:41:17.719Z,0
2017-05-07T02:42:18.985Z,0
2017-05-07T02:43:20.249Z,0
2017-05-07T02:44:21.503Z,0
2017-05-07T02:45:22.766Z,0
2017-05-07T02:46:24.197Z,0
2017-05-07T02:47:25.504Z,0
2017-05-07T02:48:26.849Z,0
2017-05-07T02:49:28.097Z,0
2017-05-07T02:50:29.361Z,0
2017-05-07T02:51:30.590Z,0
2017-05-07T02:52:31.841Z,0
2017-05-07T02:53:33.082Z,0
2017-05-07T02:54:34.339Z,0
2017-05-07T02:55:35.622Z,0
2017-05-07T02:56:36.889Z,0
2017-05-07T02:57:38.219Z,0
2017-05-07T02:58:39.559Z,0
2017-05-07T02:59:40.834Z,0
2017-05-07T03:00:42.089Z,0
2017-05-07T03:01:43.406Z,0
2017-05-07T03:02:44.639Z,0
2017-05-07T03:03:45.904Z,0
2017-05-07T03:04:47.217Z,0
2017-05-07T03:05:48.510Z,0
2017-05-07T03:06:49.820Z,0
2017-05-07T03:07:51.052Z,0
2017-05-07T03:08:52.328Z,0
2017-05-07T03:09:53.604Z,0
2017-05-07T03:10:54.854Z,0
2017-05-07T03:11:56.222Z,0
2017-05-07T03:12:57.599Z,0
2017-05-07T03:13:58.886Z,0
2017-05-07T03:15:00.161Z,0
2017-05-07T03:16:01.441Z,0
2017-05-07T03:17:02.711Z,0
2017-05-07T03:18:03.969Z,0
2017-05-07T03:19:05.219Z,0
2017-05-07T03:20:06.470Z,0
2017-05-07T03:21:07.715Z,0
2017-05-07T03:22:08.977Z,0
2017-05-07T03:23:10.227Z,0
2017-05-07T03:24:11.470Z,0
2017-05-07T03:25:12.786Z,0
2017-05-07T03:26:14.050Z,0
2017-05-07T03:27:15.355Z,0
2017-05-07T03:28:16.709Z,0
2017-05-07T03:29:17.942Z,0
2017-05-07T03:30:19.187Z,0
2017-05-07T03:31:20.452Z,0
2017-05-07T03:32:21.721Z,0
2017-05-07T03:33:23.042Z,0
2017-05-07T03:34:24.331Z,0
2017-05-07T03:35:25.592Z,0
2017-05-07T03:36:26.837Z,0
2017-05-07T03:37:28.124Z,0
2017-05-07T03:38:29.418Z,0
2017-05-07T03:39:30.674Z,5
2017-05-07T03:40:31.910Z,5
2017-05-07T03:41:33.161Z,5
2017-05-07T03:42:34.433Z,5
2017-05-07T03:43:35.748Z,5
2017-05-07T03:44:37.002Z,10
2017-05-07T03:45:38.519Z,10
2017-05-07T03:46:39.909Z,10
2017-05-07T03:47:41.200Z,10
2017-05-07T03:48:42.443Z,15
2017-05-07T03:49:43.694Z,15
2017-05-07T03:50:44.964Z,15
2017-05-07T03:51:46.213Z,15
2017-05-07T03:52:47.490Z,15
2017-05-07T03:53:48.851Z,20
2017-05-07T03:54:50.102Z,20
2017-05-07T03:55:51.347Z,25
2017-05-07T03:56:52.572Z,25
2017-05-07T03:57:53.830Z,30
2017-05-07T03:58:55.161Z,30
2017-05-07T03:59:56.378Z,30
2017-05-07T04:00:57.784Z,35
2017-05-07T04:01:59.121Z,35
2017-05-07T04:03:00.378Z,35
2017-05-07T04:04:01.765Z,40
2017-05-07T04:05:03.030Z,40
2017-05-07T04:06:04.303Z,40
2017-05-07T04:07:05.545Z,40
2017-05-07T04:08:06.834Z,40
2017-05-07T04:09:08.144Z,45
2017-05-07T04:10:09.419Z,50
2017-05-07T04:11:10.665Z,50
2017-05-07T04:12:11.931Z,50
2017-05-07T04:13:13.205Z,50
2017-05-07T04:14:14.434Z,55
2017-05-07T04:15:15.694Z,55
2017-05-07T04:16:16.947Z,55
2017-05-07T04:17:18.184Z,60
2017-05-07T04:18:19.460Z,65
2017-05-07T04:19:20.713Z,70
2017-05-07T04:20:21.967Z,75
2017-05-07T04:21:23.338Z,80
2017-05-07T04:22:24.621Z,80
2017-05-07T04:23:25.854Z,85
2017-05-07T04:24:27.164Z,85
2017-05-07T04:25:28.416Z,90
2017-05-07T04:26:29.648Z,90
2017-05-07T04:27:30.918Z,95
2017-05-07T04:28:32.168Z,100
2017-05-07T04:29:33.494Z,100
2017-05-07T04:30:34.749Z,105
2017-05-07T04:31:36.036Z,105
2017-05-07T04:32:37.345Z,110
2017-05-07T04:33:38.718Z,120
2017-05-07T04:34:39.890Z,125
2017-05-07T04:35:41.138Z,125
2017-05-07T04:36:42.386Z,130
2017-05-07T04:37:43.678Z,135
2017-05-07T04:38:44.960Z,140
2017-05-07T04:39:46.180Z,145
2017-05-07T04:40:47.450Z,150
2017-05-07T04:41:48.695Z,150
2017-05-07T04:42:49.980Z,155
2017-05-07T04:43:51.239Z,160
2017-05-07T04:44:52.547Z,165
2017-05-07T04:45:53.779Z,165
2017-05-07T04:46:55.078Z,170
2017-05-07T04:47:56.363Z,170
2017-05-07T04:48:57.619Z,170
2017-05-07T04:49:58.861Z,170
2017-05-07T04:51:00.111Z,175
2017-05-07T04:52:01.378Z,185
2017-05-07T04:53:02.649Z,185
2017-05-07T04:54:03.942Z,195
2017-05-07T04:55:05.250Z,200
2017-05-07T04:56:06.489Z,205
2017-05-07T04:57:07.746Z,210
2017-05-07T04:58:08.999Z,210
2017-05-07T04:59:10.258Z,210
2017-05-07T05:00:11.519Z,220
2017-05-07T05:01:12.797Z,220
2017-05-07T05:02:14.027Z,210
2017-05-07T05:03:15.281Z,215
2017-05-07T05:04:16.558Z,245
2017-05-07T05:05:17.856Z,265
2017-05-07T05:06:19.125Z,275
2017-05-07T05:07:20.366Z,275
2017-05-07T05:08:21.612Z,275
2017-05-07T05:09:22.882Z,270
2017-05-07T05:10:24.269Z,290
2017-05-07T05:11:25.846Z,275
2017-05-07T05:12:27.130Z,290
2017-05-07T05:13:28.376Z,300
2017-05-07T05:14:29.655Z,280
2017-05-07T05:15:30.963Z,265
2017-05-07T05:16:32.220Z,265
2017-05-07T05:17:33.481Z,275
2017-05-07T05:18:34.730Z,280
2017-05-07T05:19:35.987Z,300
2017-05-07T05:20:37.272Z,320
2017-05-07T05:21:38.546Z,305
2017-05-07T05:22:39.926Z,295
2017-05-07T05:23:41.188Z,305
2017-05-07T05:24:42.452Z,305
2017-05-07T05:25:43.701Z,295
2017-05-07T05:26:44.998Z,305
2017-05-07T05:27:46.254Z,300
2017-05-07T05:28:47.514Z,285
2017-05-07T05:29:48.801Z,280
2017-05-07T05:30:50.084Z,270
2017-05-07T05:31:51.421Z,255
2017-05-07T05:32:52.685Z,255
2017-05-07T05:33:53.977Z,265
2017-05-07T05:34:55.270Z,245
2017-05-07T05:35:56.535Z,250
2017-05-07T05:36:57.772Z,260
2017-05-07T05:37:59.045Z,260
2017-05-07T05:39:00.328Z,260
2017-05-07T05:40:01.583Z,245
2017-05-07T05:41:02.938Z,235
2017-05-07T05:42:04.153Z,250
2017-05-07T05:43:05.428Z,255
2017-05-07T05:44:06.668Z,245
2017-05-07T05:45:08.015Z,250
2017-05-07T05:46:09.183Z,245
2017-05-07T05:47:10.495Z,250
2017-05-07T05:48:11.738Z,245
2017-05-07T05:49:12.999Z,235
2017-05-07T05:50:14.245Z,220
2017-05-07T05:51:15.525Z,215
2017-05-07T05:52:16.789Z,235
2017-05-07T05:53:18.085Z,265
2017-05-07T05:54:19.487Z,265
2017-05-07T05:55:20.733Z,265
2017-05-07T05:56:22.019Z,285
2017-05-07T05:57:23.291Z,300
2017-05-07T05:58:24.596Z,315
2017-05-07T05:59:25.848Z,360
2017-05-07T06:00:27.083Z,375
2017-05-07T06:01:28.357Z,335
2017-05-07T06:02:29.635Z,310
2017-05-07T06:03:31.028Z,360
2017-05-07T06:04:32.184Z,420
2017-05-07T06:05:33.498Z,345
2017-05-07T06:06:34.780Z,335
2017-05-07T06:07:36.107Z,405
2017-05-07T06:08:37.365Z,400
2017-05-07T06:09:38.631Z,380
2017-05-07T06:10:39.892Z,330
2017-05-07T06:11:41.160Z,370
2017-05-07T06:12:42.419Z,350
2017-05-07T06:13:43.683Z,300
2017-05-07T06:14:44.920Z,300
2017-05-07T06:15:46.159Z,300
2017-05-07T06:16:47.428Z,310
2017-05-07T06:17:48.737Z,310
2017-05-07T06:18:50.067Z,295
2017-05-07T06:19:51.393Z,275
2017-05-07T06:20:52.632Z,295
2017-05-07T06:21:53.873Z,290
2017-05-07T06:22:55.131Z,280
2017-05-07T06:23:56.417Z,300
2017-05-07T06:24:57.682Z,260
2017-05-07T06:25:58.929Z,275
2017-05-07T06:27:00.202Z,255
2017-05-07T06:28:01.453Z,210
2017-05-07T06:29:02.704Z,175
2017-05-07T06:30:04.016Z,170
2017-05-07T06:31:05.276Z,180
2017-05-07T06:32:06.567Z,190
2017-05-07T06:33:07.826Z,200
2017-05-07T06:34:09.156Z,200
2017-05-07T06:35:10.405Z,230
2017-05-07T06:36:11.700Z,265
2017-05-07T06:37:12.942Z,260
2017-05-07T06:38:14.224Z,220
2017-05-07T06:39:15.500Z,265
2017-05-07T06:40:16.738Z,235
2017-05-07T06:41:18.048Z,245
2017-05-07T06:42:19.292Z,260
2017-05-07T06:43:20.559Z,290
2017-05-07T06:44:21.852Z,305
2017-05-07T06:45:23.105Z,315
2017-05-07T06:46:24.411Z,320
2017-05-07T06:47:25.644Z,325
2017-05-07T06:48:26.900Z,320
2017-05-07T06:49:28.141Z,335
2017-05-07T06:50:29.389Z,365
2017-05-07T06:51:30.665Z,345
2017-05-07T06:52:31.970Z,350
2017-05-07T06:53:33.252Z,355
2017-05-07T06:54:34.563Z,345
2017-05-07T06:55:35.833Z,355
2017-05-07T06:56:37.153Z,375
2017-05-07T06:57:38.407Z,345
2017-05-07T06:58:39.660Z,330
2017-05-07T06:59:41.015Z,360
2017-05-07T07:00:42.418Z,335
2017-05-07T07:01:43.684Z,335
2017-05-07T07:02:44.900Z,360
2017-05-07T07:03:46.171Z,370
2017-05-07T07:04:47.456Z,340
2017-05-07T07:05:48.759Z,370
2017-05-07T07:06:50.007Z,385
2017-05-07T07:07:51.278Z,365
2017-05-07T07:08:52.568Z,360
2017-05-07T07:09:53.797Z,355
2017-05-07T07:10:55.150Z,355
2017-05-07T07:11:56.419Z,335
2017-05-07T07:12:57.751Z,310
2017-05-07T07:13:59.023Z,335
2017-05-07T07:15:00.259Z,340
2017-05-07T07:16:01.535Z,320
2017-05-07T07:17:02.812Z,335
2017-05-07T07:18:04.030Z,345
2017-05-07T07:19:05.526Z,335
2017-05-07T07:20:06.818Z,335
2017-05-07T07:21:08.060Z,330
2017-05-07T07:22:09.378Z,320
2017-05-07T07:23:10.736Z,315
2017-05-07T07:24:11.987Z,325
2017-05-07T07:25:13.264Z,320
2017-05-07T07:26:14.518Z,320
2017-05-07T07:27:15.771Z,315
2017-05-07T07:28:17.090Z,330
2017-05-07T07:29:18.307Z,365
2017-05-07T07:30:19.732Z,375
2017-05-07T07:31:20.985Z,365
2017-05-07T07:32:22.255Z,315
2017-05-07T07:33:23.491Z,305
2017-05-07T07:34:24.747Z,300
2017-05-07T07:35:26.074Z,275
2017-05-07T07:36:27.278Z,265
2017-05-07T07:37:28.555Z,235
2017-05-07T07:38:29.854Z,200
2017-05-07T07:39:31.317Z,195
2017-05-07T07:40:32.552Z,195
2017-05-07T07:41:33.834Z,205
2017-05-07T07:42:35.080Z,205
2017-05-07T07:43:36.351Z,210
2017-05-07T07:44:37.638Z,200
2017-05-07T07:45:38.881Z,210
2017-05-07T07:46:40.128Z,210
2017-05-07T07:47:41.439Z,210
2017-05-07T07:48:42.704Z,225
2017-05-07T07:49:43.962Z,235
2017-05-07T07:50:45.214Z,250
2017-05-07T07:51:46.492Z,275
2017-05-07T07:52:47.759Z,285
2017-05-07T07:53:49.023Z,290
2017-05-07T07:54:50.295Z,315
2017-05-07T07:55:51.581Z,330
2017-05-07T07:56:52.872Z,365
2017-05-07T07:57:54.136Z,380
2017-05-07T07:58:55.385Z,420
2017-05-07T07:59:56.708Z,435
2017-05-07T08:00:57.997Z,440
2017-05-07T08:01:59.352Z,445
2017-05-07T08:03:00.641Z,445
2017-05-07T08:04:01.901Z,415
2017-05-07T08:05:03.163Z,400
2017-05-07T08:06:04.468Z,405
2017-05-07T08:07:05.728Z,425
2017-05-07T08:08:06.988Z,435
2017-05-07T08:09:08.252Z,445
2017-05-07T08:10:09.610Z,465
2017-05-07T08:11:10.903Z,470
2017-05-07T08:12:12.230Z,500
2017-05-07T08:13:13.486Z,500
2017-05-07T08:14:14.787Z,480
2017-05-07T08:15:16.033Z,455
2017-05-07T08:16:17.312Z,465
2017-05-07T08:17:18.609Z,490
2017-05-07T08:18:19.864Z,515
2017-05-07T08:19:21.109Z,535
2017-05-07T08:20:22.377Z,530
2017-05-07T08:21:23.643Z,505
2017-05-07T08:22:24.878Z,455
2017-05-07T08:23:26.160Z,440
2017-05-07T08:24:27.393Z,445
2017-05-07T08:25:28.626Z,485
2017-05-07T08:26:29.900Z,510
2017-05-07T08:27:31.168Z,500
2017-05-07T08:28:32.427Z,490
2017-05-07T08:29:33.759Z,490
2017-05-07T08:30:35.055Z,525
2017-05-07T08:31:36.287Z,555
2017-05-07T08:32:37.569Z,570
2017-05-07T08:33:38.820Z,580
2017-05-07T08:34:40.089Z,555
2017-05-07T08:35:41.377Z,555
2017-05-07T08:36:42.665Z,560
2017-05-07T08:37:43.996Z,565
2017-05-07T08:38:45.285Z,570
2017-05-07T08:39:46.535Z,530
2017-05-07T08:40:47.806Z,560
2017-05-07T08:41:49.061Z,530
2017-05-07T08:42:50.320Z,495
2017-05-07T08:43:51.583Z,465
2017-05-07T08:44:52.821Z,450
2017-05-07T08:45:54.100Z,450
2017-05-07T08:46:55.436Z,465
2017-05-07T08:47:56.726Z,460
2017-05-07T08:48:58.047Z,485
2017-05-07T08:49:59.334Z,475
2017-05-07T08:51:00.615Z,485
2017-05-07T08:52:01.874Z,505
2017-05-07T08:53:03.146Z,530
2017-05-07T08:54:04.399Z,535
2017-05-07T08:55:05.833Z,510
2017-05-07T08:56:07.072Z,465
2017-05-07T08:57:08.363Z,465
2017-05-07T08:58:09.628Z,445
2017-05-07T08:59:10.974Z,460
2017-05-07T09:00:12.250Z,475
2017-05-07T09:01:13.653Z,535
2017-05-07T09:02:14.931Z,540
2017-05-07T09:03:16.161Z,530
2017-05-07T09:04:17.424Z,560
2017-05-07T09:05:18.767Z,525
2017-05-07T09:06:19.987Z,470
2017-05-07T09:07:21.298Z,465
2017-05-07T09:08:22.541Z,500
2017-05-07T09:09:23.810Z,515
2017-05-07T09:10:25.044Z,525
2017-05-07T09:11:26.280Z,560
2017-05-07T09:12:27.554Z,550
2017-05-07T09:13:28.801Z,510
2017-05-07T09:14:30.106Z,470
2017-05-07T09:15:31.410Z,420
2017-05-07T09:16:32.667Z,375
2017-05-07T09:17:34.025Z,380
2017-05-07T09:18:35.373Z,375
2017-05-07T09:19:36.618Z,370
2017-05-07T09:20:37.871Z,360
2017-05-07T09:21:39.110Z,340
2017-05-07T09:22:40.391Z,360
2017-05-07T09:23:41.643Z,385
2017-05-07T09:24:43.055Z,445
2017-05-07T09:25:44.277Z,475
2017-05-07T09:26:45.534Z,485
2017-05-07T09:27:46.770Z,525
2017-05-07T09:28:48.035Z,620
2017-05-07T09:29:49.295Z,670
2017-05-07T09:30:50.636Z,640
2017-05-07T09:31:51.813Z,590
2017-05-07T09:32:53.091Z,585
2017-05-07T09:33:54.360Z,635
2017-05-07T09:34:55.609Z,695
2017-05-07T09:35:57.034Z,710
2017-05-07T09:36:58.320Z,785
2017-05-07T09:37:59.601Z,1160
2017-05-07T09:39:00.885Z,1330
2017-05-07T09:40:02.115Z,1080
2017-05-07T09:41:03.442Z,965
2017-05-07T09:42:04.693Z,1030
2017-05-07T09:43:05.976Z,1005
2017-05-07T09:44:07.239Z,1200
2017-05-07T09:45:08.503Z,1130
2017-05-07T09:46:09.780Z,1250
2017-05-07T09:47:11.108Z,1145
2017-05-07T09:48:12.364Z,1010
2017-05-07T09:49:13.756Z,2080
2017-05-07T09:50:15.137Z,2520
2017-05-07T09:51:16.410Z,1820
2017-05-07T09:52:17.666Z,1190
2017-05-07T09:53:19.005Z,1220
2017-05-07T09:54:20.203Z,1045
2017-05-07T09:55:21.474Z,1590
2017-05-07T09:56:22.743Z,1175
2017-05-07T09:57:24.004Z,1120
2017-05-07T09:58:25.297Z,1230
2017-05-07T09:59:26.540Z,1155
2017-05-07T10:00:27.805Z,1135
2017-05-07T10:01:29.086Z,890
2017-05-07T10:02:30.323Z,980
2017-05-07T10:03:31.649Z,1885
2017-05-07T10:04:32.908Z,1580
2017-05-07T10:05:34.175Z,1195
2017-05-07T10:06:35.427Z,1470
2017-05-07T10:07:36.696Z,2225
2017-05-07T10:08:37.967Z,1240
2017-05-07T10:09:39.244Z,1040
2017-05-07T10:10:40.503Z,1695
2017-05-07T10:11:41.780Z,1255
2017-05-07T10:12:43.039Z,1140
2017-05-07T10:13:44.298Z,1330
2017-05-07T10:14:45.577Z,1580
2017-05-07T10:15:46.850Z,1015
2017-05-07T10:16:48.137Z,1390
2017-05-07T10:17:49.428Z,1310
2017-05-07T10:18:50.685Z,865
2017-05-07T10:19:51.976Z,940
2017-05-07T10:20:53.283Z,995
2017-05-07T10:21:54.540Z,960
2017-05-07T10:22:55.813Z,830
2017-05-07T10:23:57.089Z,785
2017-05-07T10:24:58.350Z,710
2017-05-07T10:25:59.598Z,620
2017-05-07T10:27:00.866Z,610
2017-05-07T10:28:02.153Z,645
2017-05-07T10:29:03.432Z,690
2017-05-07T10:30:04.676Z,720
2017-05-07T10:31:05.982Z,755
2017-05-07T10:32:07.385Z,890
2017-05-07T10:33:08.668Z,1005
2017-05-07T10:34:09.936Z,990
2017-05-07T10:35:11.284Z,1050
2017-05-07T10:36:12.567Z,1150
2017-05-07T10:37:13.858Z,1105
2017-05-07T10:38:15.113Z,1005
2017-05-07T10:39:16.379Z,875
2017-05-07T10:40:17.679Z,825
2017-05-07T10:41:18.999Z,865
2017-05-07T10:42:20.271Z,895
2017-05-07T10:43:21.536Z,1000
2017-05-07T10:44:22.821Z,1120
2017-05-07T10:45:24.110Z,995
2017-05-07T10:46:25.395Z,995
2017-05-07T10:47:26.638Z,875
2017-05-07T10:48:27.979Z,805
2017-05-07T10:49:29.270Z,845
2017-05-07T10:50:30.515Z,905
2017-05-07T10:51:31.764Z,860
2017-05-07T10:52:33.174Z,775
2017-05-07T10:53:34.344Z,740
2017-05-07T10:54:35.717Z,750
2017-05-07T10:55:37.019Z,725
2017-05-07T10:56:38.273Z,720
2017-05-07T10:57:39.622Z,710
2017-05-07T10:58:40.880Z,685
2017-05-07T10:59:42.152Z,695
2017-05-07T11:00:43.519Z,730
2017-05-07T11:01:44.798Z,740
2017-05-07T11:02:46.138Z,665
2017-05-07T11:03:47.446Z,585
2017-05-07T11:04:48.850Z,580
2017-05-07T11:05:50.099Z,615
2017-05-07T11:06:51.404Z,620
2017-05-07T11:07:52.650Z,575
2017-05-07T11:08:53.925Z,570
2017-05-07T11:09:55.190Z,600
2017-05-07T11:10:56.422Z,640
2017-05-07T11:11:57.678Z,670
2017-05-07T11:12:58.919Z,640
2017-05-07T11:14:00.209Z,610
2017-05-07T11:15:01.490Z,585
2017-05-07T11:16:02.763Z,575
2017-05-07T11:17:04.174Z,585
2017-05-07T11:18:05.471Z,620
2017-05-07T11:19:06.747Z,660
2017-05-07T11:20:07.995Z,705
2017-05-07T11:21:09.276Z,760
2017-05-07T11:22:10.557Z,795
2017-05-07T11:23:11.846Z,810
2017-05-07T11:24:13.123Z,810
2017-05-07T11:25:14.376Z,805
2017-05-07T11:26:15.767Z,800
2017-05-07T11:27:17.150Z,795
2017-05-07T11:28:18.421Z,780
2017-05-07T11:29:19.695Z,770
2017-05-07T11:30:20.953Z,760
2017-05-07T11:31:22.193Z,765
2017-05-07T11:32:23.443Z,745
2017-05-07T11:33:24.873Z,715
2017-05-07T11:34:26.203Z,670
2017-05-07T11:35:27.539Z,645
2017-05-07T11:36:28.803Z,635
2017-05-07T11:37:30.075Z,650
2017-05-07T11:38:31.337Z,665
2017-05-07T11:39:32.607Z,670
2017-05-07T11:40:33.923Z,680
2017-05-07T11:41:35.232Z,680
2017-05-07T11:42:36.490Z,685
2017-05-07T11:43:37.744Z,695
2017-05-07T11:44:39.092Z,710
2017-05-07T11:45:40.402Z,720
2017-05-07T11:46:41.698Z,720
2017-05-07T11:47:43.003Z,715
2017-05-07T11:48:44.224Z,695
2017-05-07T11:49:45.507Z,685
2017-05-07T11:50:46.775Z,680
2017-05-07T11:51:48.062Z,685
2017-05-07T11:52:49.325Z,685
2017-05-07T11:53:50.579Z,695
2017-05-07T11:54:51.833Z,710
2017-05-07T11:55:53.124Z,725
2017-05-07T11:56:54.396Z,735
2017-05-07T11:57:55.653Z,755
2017-05-07T11:58:56.918Z,750
2017-05-07T11:59:58.223Z,745
2017-05-07T12:00:59.482Z,725
2017-05-07T12:02:00.759Z,695
2017-05-07T12:03:02.024Z,680
2017-05-07T12:04:03.294Z,655
2017-05-07T12:05:04.656Z,640
2017-05-07T12:06:05.933Z,615
2017-05-07T12:07:07.218Z,585
2017-05-07T12:08:08.453Z,545
2017-05-07T12:09:09.709Z,515
2017-05-07T12:10:11.056Z,505
2017-05-07T12:11:12.339Z,495
2017-05-07T12:12:13.669Z,490
2017-05-07T12:13:14.940Z,485
2017-05-07T12:14:16.209Z,480
2017-05-07T12:15:17.504Z,470
2017-05-07T12:16:18.745Z,470
2017-05-07T12:17:19.998Z,470
2017-05-07T12:18:21.301Z,480
2017-05-07T12:19:22.584Z,485
2017-05-07T12:20:23.890Z,490
2017-05-07T12:21:25.152Z,495
2017-05-07T12:22:26.507Z,500
2017-05-07T12:23:27.768Z,500
2017-05-07T12:24:29.007Z,495
2017-05-07T12:25:30.288Z,495
2017-05-07T12:26:31.554Z,490
2017-05-07T12:27:32.811Z,490
2017-05-07T12:28:34.044Z,495
2017-05-07T12:29:35.379Z,490
2017-05-07T12:30:36.646Z,490
2017-05-07T12:31:37.915Z,495
2017-05-07T12:32:39.172Z,500
2017-05-07T12:33:40.450Z,500
2017-05-07T12:34:41.777Z,500
2017-05-07T12:35:43.002Z,505
2017-05-07T12:36:44.304Z,500
2017-05-07T12:37:45.594Z,500
2017-05-07T12:38:46.845Z,505
2017-05-07T12:39:48.125Z,505
2017-05-07T12:40:49.398Z,505
2017-05-07T12:41:50.663Z,510
2017-05-07T12:42:51.941Z,520
2017-05-07T12:43:53.209Z,530
2017-05-07T12:44:54.492Z,535
2017-05-07T12:45:55.863Z,540
2017-05-07T12:46:57.144Z,545
2017-05-07T12:47:58.377Z,550
2017-05-07T12:48:59.680Z,550
2017-05-07T12:50:00.941Z,550
2017-05-07T12:51:02.232Z,555
2017-05-07T12:52:03.566Z,565
2017-05-07T12:53:04.820Z,570
2017-05-07T12:54:06.155Z,575
2017-05-07T12:55:07.403Z,575
2017-05-07T12:56:08.704Z,580
2017-05-07T12:57:09.952Z,580
2017-05-07T12:58:11.268Z,580
2017-05-07T12:59:12.539Z,585
2017-05-07T13:00:13.939Z,590
2017-05-07T13:01:15.220Z,600
2017-05-07T13:02:16.490Z,610
2017-05-07T13:03:17.748Z,625
2017-05-07T13:04:18.997Z,630
2017-05-07T13:05:20.278Z,635
2017-05-07T13:06:21.552Z,635
2017-05-07T13:07:22.844Z,635
2017-05-07T13:08:24.139Z,635
2017-05-07T13:09:25.406Z,640
2017-05-07T13:10:26.678Z,645
2017-05-07T13:11:27.955Z,650
2017-05-07T13:12:29.202Z,670
2017-05-07T13:13:30.479Z,670
2017-05-07T13:14:31.796Z,670
2017-05-07T13:15:33.154Z,670
2017-05-07T13:16:34.403Z,665
2017-05-07T13:17:35.680Z,660
2017-05-07T13:18:36.944Z,655
2017-05-07T13:19:38.211Z,660
2017-05-07T13:20:39.512Z,665
2017-05-07T13:21:40.771Z,655
2017-05-07T13:22:42.044Z,655
2017-05-07T13:23:43.309Z,655
2017-05-07T13:24:44.559Z,665
2017-05-07T13:25:45.815Z,670
2017-05-07T13:26:47.086Z,665
2017-05-07T13:27:48.441Z,665
2017-05-07T13:28:49.674Z,675
2017-05-07T13:29:50.953Z,670
2017-05-07T13:30:52.234Z,675
2017-05-07T13:31:53.534Z,665
2017-05-07T13:32:54.891Z,665
2017-05-07T13:33:56.157Z,655
2017-05-07T13:34:57.410Z,650
2017-05-07T13:35:58.651Z,650
2017-05-07T13:37:00.014Z,660
2017-05-07T13:38:01.354Z,660
2017-05-07T13:39:02.674Z,655
2017-05-07T13:40:03.939Z,650
2017-05-07T13:41:05.210Z,645
2017-05-07T13:42:06.472Z,640
2017-05-07T13:43:07.871Z,630
2017-05-07T13:44:09.132Z,615
2017-05-07T13:45:10.532Z,590
2017-05-07T13:46:11.763Z,555
2017-05-07T13:47:13.018Z,520
2017-05-07T13:48:14.282Z,500
2017-05-07T13:49:15.597Z,490
2017-05-07T13:50:16.897Z,495
2017-05-07T13:51:18.169Z,495
2017-05-07T13:52:19.464Z,495
2017-05-07T13:53:20.769Z,500
2017-05-07T13:54:21.983Z,505
2017-05-07T13:55:23.272Z,505
2017-05-07T13:56:24.512Z,510
2017-05-07T13:57:25.791Z,525
2017-05-07T13:58:27.040Z,535
2017-05-07T13:59:28.289Z,545
2017-05-07T14:00:29.620Z,550
2017-05-07T14:01:30.971Z,560
2017-05-07T14:02:32.147Z,570
2017-05-07T14:03:33.423Z,590
2017-05-07T14:04:34.704Z,590
2017-05-07T14:05:35.948Z,595
2017-05-07T14:06:37.217Z,600
2017-05-07T14:07:38.485Z,595
2017-05-07T14:08:39.782Z,590
2017-05-07T14:09:41.022Z,595
2017-05-07T14:10:42.290Z,595
2017-05-07T14:11:43.569Z,595
2017-05-07T14:12:44.792Z,590
2017-05-07T14:13:46.075Z,590
2017-05-07T14:14:47.434Z,575
2017-05-07T14:15:48.715Z,570
2017-05-07T14:16:49.959Z,565
2017-05-07T14:17:51.215Z,560
2017-05-07T14:18:52.478Z,555
2017-05-07T14:19:53.825Z,550